Terminal Aerodrome Forecast
Issued by NWS Sioux Falls, SD

Home | Current Version | Previous Version | Graphics & Text | Print | Product List | Glossary On
Versions: 1 2 3 4 5 6 7 8 9 10 11 12 13 14 15 16 17 18 19 20
000
FTUS43 KFSD 020520
TAFSUX
TAF
KSUX 020520Z 0206/0306 19005KT P6SM FEW250
     FM021400 26009KT P6SM SKC
     FM021800 32013G19KT P6SM SKC
     FM030000 35005KT P6SM SKC=

USA.gov is the U.S. government's official web portal to all federal, state and local government web resources and services.